createdAt,value
2018-04-15T00:00:56.264Z,98544
2018-04-15T00:03:23.827Z,98545
2018-04-15T00:05:51.381Z,98545
2018-04-15T00:08:18.944Z,98540
2018-04-15T00:10:46.508Z,98537
2018-04-15T00:13:14.074Z,98546
2018-04-15T00:15:41.635Z,98543
2018-04-15T00:18:09.200Z,98539
2018-04-15T00:20:36.765Z,98537
2018-04-15T00:23:04.325Z,98520
2018-04-15T00:25:31.900Z,98519
2018-04-15T00:27:59.465Z,98522
2018-04-15T00:30:27.094Z,98526
2018-04-15T00:32:54.657Z,98529
2018-04-15T00:35:22.220Z,98524
2018-04-15T00:37:49.800Z,98528
2018-04-15T00:57:36.262Z,98517
2018-04-15T01:00:03.826Z,98519
2018-04-15T01:02:31.380Z,98519
2018-04-15T01:04:58.938Z,98512
2018-04-15T01:07:26.500Z,98503
2018-04-15T01:09:54.078Z,98504
2018-04-15T01:12:21.627Z,98516
2018-04-15T01:14:49.181Z,98506
2018-04-15T01:17:16.751Z,98515
2018-04-15T01:19:44.308Z,98519
2018-04-15T01:22:11.862Z,98514
2018-04-15T01:24:39.422Z,98517
2018-04-15T01:27:06.976Z,98511
2018-04-15T01:29:34.529Z,98499
2018-04-15T01:32:02.088Z,98500
2018-04-15T01:34:29.660Z,98498
2018-04-15T01:36:57.210Z,98498
2018-04-15T01:39:24.758Z,98487
2018-04-15T01:41:52.445Z,98477
2018-04-15T01:44:20.033Z,98482
2018-04-15T01:46:47.588Z,98479
2018-04-15T01:49:15.145Z,98477
2018-04-15T01:51:42.714Z,98472
2018-04-15T01:54:10.265Z,98477
2018-04-15T01:56:37.864Z,98467
2018-04-15T01:59:05.417Z,98475
2018-04-15T02:01:33.044Z,98477
2018-04-15T02:04:00.604Z,98466
2018-04-15T02:06:28.194Z,98466
2018-04-15T02:08:55.874Z,98472
2018-04-15T02:11:23.426Z,98466
2018-04-15T02:13:50.984Z,98476
2018-04-15T02:16:18.541Z,98474
2018-04-15T02:18:46.107Z,98471
2018-04-15T02:47:09.974Z,98465
2018-04-15T02:49:37.554Z,98459
2018-04-15T02:52:05.152Z,98470
2018-04-15T02:54:32.745Z,98457
2018-04-15T02:57:00.302Z,98465
2018-04-15T02:59:27.869Z,98474
2018-04-15T03:01:55.444Z,98466
2018-04-15T03:04:23.015Z,98459
2018-04-15T03:06:50.581Z,98459
2018-04-15T03:09:18.142Z,98455
2018-04-15T03:11:45.700Z,98452
2018-04-15T03:14:13.260Z,98455
2018-04-15T03:16:40.816Z,98444
2018-04-15T03:19:08.373Z,98448
2018-04-15T03:21:36.010Z,98436
2018-04-15T03:24:03.566Z,98446
2018-04-15T03:26:31.120Z,98443
2018-04-15T03:28:58.733Z,98452
2018-04-15T03:48:41.680Z,98434
2018-04-15T03:51:09.238Z,98431
2018-04-15T03:53:36.794Z,98418
2018-04-15T03:56:04.348Z,98420
2018-04-15T03:58:31.905Z,98411
2018-04-15T04:00:59.464Z,98406
2018-04-15T04:03:27.033Z,98407
2018-04-15T04:05:54.591Z,98398
2018-04-15T04:08:22.169Z,98401
2018-04-15T04:10:49.727Z,98394
2018-04-15T04:13:17.285Z,98388
2018-04-15T04:15:44.844Z,98392
2018-04-15T04:18:24.231Z,98382
2018-04-15T04:21:03.559Z,98386
2018-04-15T04:23:42.774Z,98397
2018-04-15T04:26:10.329Z,98389
2018-04-15T04:28:37.880Z,98380
2018-04-15T04:48:24.938Z,98355
2018-04-15T04:50:52.501Z,98357
2018-04-15T04:53:20.055Z,98354
2018-04-15T04:55:47.642Z,98359
2018-04-15T04:58:15.229Z,98358
2018-04-15T05:00:42.795Z,98363
2018-04-15T05:03:10.356Z,98362
2018-04-15T05:22:57.172Z,98342
2018-04-15T05:25:24.729Z,98342
2018-04-15T05:27:52.282Z,98322
2018-04-15T05:30:19.848Z,98321
2018-04-15T05:32:47.401Z,98322
2018-04-15T05:35:14.956Z,98311
2018-04-15T05:37:42.514Z,98305
2018-04-15T05:40:10.074Z,98305
2018-04-15T05:42:37.643Z,98306
2018-04-15T05:45:05.345Z,98310
2018-04-15T06:04:50.463Z,98320
2018-04-15T06:30:22.127Z,98313
2018-04-15T06:50:07.402Z,98298
2018-04-15T06:52:34.949Z,98298
2018-04-15T07:03:41.772Z,98309
2018-04-15T07:23:28.322Z,98315
2018-04-15T07:32:01.819Z,98303
2018-04-15T07:34:29.389Z,98312
2018-04-15T07:36:56.962Z,98313
2018-04-15T07:39:24.546Z,98298
2018-04-15T07:41:52.109Z,98312
2018-04-15T07:44:19.682Z,98312
2018-04-15T07:46:47.255Z,98306
2018-04-15T08:06:33.732Z,98298
2018-04-15T08:09:01.318Z,98287
2018-04-15T08:11:28.946Z,98294
2018-04-15T08:31:13.279Z,98291
2018-04-15T08:33:40.847Z,98274
2018-04-15T08:36:08.477Z,98280
2018-04-15T08:58:46.148Z,98254
2018-04-15T09:18:32.520Z,98237
2018-04-15T09:38:16.665Z,98236
2018-04-15T09:58:01.497Z,98233
2018-04-15T10:00:29.058Z,98228
2018-04-15T10:20:12.328Z,98218
2018-04-15T10:22:39.996Z,98219
2018-04-15T10:42:25.014Z,98193
2018-04-15T11:02:10.773Z,98166
2018-04-15T11:21:56.517Z,98139
2018-04-15T11:24:24.095Z,98148
2018-04-15T11:44:08.733Z,98131
2018-04-15T11:46:36.306Z,98126
2018-04-15T11:49:03.880Z,98123
2018-04-15T11:51:31.478Z,98111
2018-04-15T11:53:59.052Z,98123
2018-04-15T12:13:43.813Z,98118
2018-04-15T12:33:26.052Z,98088
2018-04-15T12:53:31.203Z,98067
2018-04-15T12:55:58.774Z,98050
2018-04-15T13:15:43.775Z,98032
2018-04-15T13:18:12.228Z,98013
2018-04-15T13:37:56.222Z,97992
2018-04-15T13:40:23.782Z,97981
2018-04-15T13:42:51.341Z,97968
2018-04-15T13:45:18.898Z,97972
2018-04-15T13:47:46.465Z,97969
2018-04-15T13:50:14.033Z,97973
2018-04-15T13:52:41.606Z,97970
2018-04-15T13:55:09.222Z,97959
2018-04-15T13:57:36.819Z,97969
2018-04-15T14:00:04.369Z,97958
2018-04-15T14:02:31.932Z,97952
2018-04-15T14:22:16.837Z,97948
2018-04-15T14:24:44.396Z,97957
2018-04-15T14:27:11.974Z,97953
2018-04-15T14:49:49.805Z,97951
2018-04-15T15:04:21.314Z,97950
2018-04-15T15:24:07.287Z,97924
2018-04-15T15:26:34.931Z,97922
2018-04-15T15:29:02.539Z,97919
2018-04-15T15:31:30.135Z,97931
2018-04-15T15:33:57.740Z,97923
2018-04-15T16:08:06.998Z,97880
2018-04-15T16:10:34.665Z,97868
2018-04-15T16:13:02.293Z,97881
2018-04-15T16:47:13.366Z,97876
2018-04-15T17:06:56.792Z,97879
2018-04-15T17:26:43.041Z,97905
2018-04-15T17:29:10.619Z,97904
2018-04-15T17:37:24.448Z,97921
2018-04-15T18:17:19.555Z,97944
2018-04-15T18:37:03.228Z,97950
2018-04-15T18:56:46.356Z,97951
2018-04-15T19:16:31.043Z,97976
2018-04-15T19:18:58.639Z,97970
2018-04-15T19:21:30.171Z,97966
2018-04-15T19:23:58.168Z,97968
2018-04-15T19:26:25.720Z,97970
2018-04-15T19:28:53.347Z,97982
2018-04-15T19:31:20.906Z,97963
2018-04-15T19:51:06.124Z,97952
2018-04-15T19:53:33.933Z,97958
2018-04-15T19:56:01.524Z,97958
2018-04-15T19:58:29.868Z,97950
2018-04-15T20:00:57.473Z,97946
2018-04-15T20:03:25.843Z,97941
2018-04-15T20:05:54.242Z,97942
2018-04-15T20:08:21.937Z,97953
2018-04-15T20:10:49.600Z,97960
2018-04-15T20:13:17.211Z,97961
2018-04-15T20:15:45.554Z,97962
2018-04-15T20:18:13.128Z,97961
2018-04-15T20:20:40.737Z,97960
2018-04-15T20:23:09.560Z,97960
2018-04-15T20:25:37.154Z,97971
2018-04-15T20:28:04.722Z,97950
2018-04-15T20:30:32.298Z,97974
2018-04-15T20:33:00.641Z,97959
2018-04-15T20:35:28.215Z,97965
2018-04-15T20:37:55.796Z,97962
2018-04-15T20:40:24.193Z,97968
2018-04-15T20:42:51.831Z,97969
2018-04-15T20:45:20.179Z,97974
2018-04-15T20:47:47.790Z,97972
2018-04-15T20:50:16.156Z,97975
2018-04-15T20:52:44.499Z,97977
2018-04-15T20:55:12.127Z,97976
2018-04-15T20:57:39.755Z,97979
2018-04-15T21:00:08.063Z,97986
2018-04-15T21:02:35.690Z,97989
2018-04-15T21:05:03.265Z,97987
2018-04-15T21:07:31.608Z,97990
2018-04-15T21:09:59.184Z,97985
2018-04-15T21:12:26.764Z,97986
2018-04-15T21:14:55.107Z,97983
2018-04-15T21:17:22.683Z,97982
2018-04-15T21:19:50.316Z,97976
2018-04-15T21:22:18.611Z,97973
2018-04-15T21:24:46.208Z,97980
2018-04-15T21:27:14.584Z,97984
2018-04-15T21:29:42.921Z,97981
2018-04-15T21:32:10.500Z,97978
2018-04-15T21:34:39.865Z,97982
2018-04-15T21:37:08.497Z,97969
2018-04-15T21:39:36.075Z,97970
2018-04-15T21:42:04.415Z,97973
2018-04-15T21:44:31.993Z,97963
2018-04-15T21:46:59.674Z,97959
2018-04-15T21:49:28.067Z,97962
2018-04-15T21:51:56.436Z,97949
2018-04-15T21:54:24.099Z,97950
2018-04-15T21:56:52.439Z,97940
2018-04-15T21:59:20.009Z,97944
2018-04-15T22:01:47.595Z,97930
2018-04-15T22:04:15.165Z,97942
2018-04-15T22:06:43.539Z,97942
2018-04-15T22:09:11.202Z,97938
2018-04-15T22:11:52.799Z,97940
2018-04-15T22:14:21.179Z,97934
2018-04-15T22:16:49.548Z,97935
2018-04-15T22:19:17.122Z,97933
2018-04-15T22:21:45.460Z,97934
2018-04-15T22:24:13.031Z,97936
2018-04-15T22:26:40.620Z,97931
2018-04-15T22:29:10.073Z,97920
2018-04-15T22:31:38.110Z,97930
2018-04-15T22:34:06.456Z,97934
2018-04-15T22:36:34.141Z,97927
2018-04-15T22:39:02.515Z,97924
2018-04-15T22:41:30.892Z,97924
2018-04-15T22:43:58.468Z,97925
2018-04-15T22:46:26.823Z,97932
2018-04-15T22:48:56.326Z,97923
2018-04-15T22:51:24.009Z,97929
2018-04-15T22:53:52.386Z,97928
2018-04-15T22:56:20.727Z,97934
2018-04-15T22:58:48.331Z,97937
2018-04-15T23:01:16.708Z,97928
2018-04-15T23:03:45.088Z,97933
2018-04-15T23:06:12.651Z,97938
2018-04-15T23:08:41.027Z,97935
2018-04-15T23:11:10.738Z,97944
2018-04-15T23:13:40.350Z,97945
2018-04-15T23:16:09.935Z,97934
2018-04-15T23:18:38.150Z,97916
2018-04-15T23:21:06.507Z,97923
2018-04-15T23:23:34.171Z,97918
2018-04-15T23:26:01.743Z,97923
2018-04-15T23:28:30.116Z,97923
2018-04-15T23:30:58.452Z,97931
2018-04-15T23:33:26.060Z,97929
2018-04-15T23:35:54.438Z,97930
2018-04-15T23:38:22.779Z,97929
2018-04-15T23:40:50.376Z,97935
2018-04-15T23:43:18.764Z,97936
2018-04-15T23:45:47.141Z,97940
2018-04-15T23:48:15.483Z,97940
2018-04-15T23:50:43.056Z,97940
2018-04-15T23:53:10.636Z,97939
2018-04-15T23:55:38.815Z,97942
2018-04-15T23:58:07.156Z,97932
